Time;durP1;ratioP1;P1;durP2;ratioP2;P2;SDS_P1;SDS_P2;PMS_P1;PMS_P2;Temp;Humidity;BMP_temperature;BMP_pressure;BME280_temperature;BME280_humidity;BME280_pressure;Samples;Min_cycle;Max_cycle;Signal;HPM_P1;HPM_P2
2023/07/28 00:00:15;;;;;;;5.72;4.82;;;;;;;23.30;85.66;97906.66;5074949;28;19963;-74
2023/07/28 00:03:00;;;;;;;7.05;5.28;;;;;;;23.52;85.33;97901.25;5078969;28;20136;-75
2023/07/28 00:05:44;;;;;;;7.22;4.78;;;;;;;23.35;86.10;97911.88;5068953;28;20161;-74
2023/07/28 00:08:28;;;;;;;12.77;5.95;;;;;;;23.47;86.18;97904.06;5077235;28;20535;-75
2023/07/28 00:11:14;;;;;;;7.32;5.25;;;;;;;23.55;86.32;97910.56;5079168;28;20094;-75
2023/07/28 00:13:58;;;;;;;6.80;4.55;;;;;;;23.71;85.88;97900.22;5080733;28;20532;-74
2023/07/28 00:16:42;;;;;;;5.32;4.82;;;;;;;23.62;86.52;97902.09;5078928;28;20043;-75
2023/07/28 00:19:26;;;;;;;7.18;4.88;;;;;;;23.75;86.55;97903.09;5082687;28;20520;-74
2023/07/28 00:22:11;;;;;;;6.22;4.50;;;;;;;23.69;87.03;97905.09;5084216;28;20051;-75
2023/07/28 00:24:54;;;;;;;;;;;;;;;24.14;85.75;97904.16;5081683;28;20043;-75
2023/07/28 00:27:38;;;;;;;5.28;4.30;;;;;;;24.03;86.17;97895.63;5080548;28;19957;-75
2023/07/28 00:30:23;;;;;;;5.90;4.55;;;;;;;24.46;85.16;97904.81;5083123;28;20707;-75
2023/07/28 00:33:07;;;;;;;6.07;4.28;;;;;;;24.33;85.38;97906.56;5079129;28;20039;-75
2023/07/28 00:35:51;;;;;;;;;;;;;;;24.66;84.47;97897.25;5077194;28;20505;-75
2023/07/28 00:38:35;;;;;;;5.68;4.20;;;;;;;24.58;84.35;97906.09;5079219;28;19942;-75
2023/07/28 00:41:19;;;;;;;4.60;4.07;;;;;;;24.80;83.67;97897.16;5081560;28;20098;-74
2023/07/28 00:44:03;;;;;;;5.22;3.83;;;;;;;24.65;83.82;97901.03;5084525;28;20043;-74
2023/07/28 00:46:47;;;;;;;6.70;4.07;;;;;;;24.57;84.01;97896.47;5084005;28;20084;-74
2023/07/28 00:49:32;;;;;;;6.50;4.70;;;;;;;24.41;84.22;97890.81;5076803;28;20119;-75
2023/07/28 00:52:16;;;;;;;5.78;4.50;;;;;;;24.29;84.15;97894.09;5077997;28;20111;-76
2023/07/28 00:55:01;;;;;;;7.18;5.18;;;;;;;24.13;84.79;97889.19;5078151;28;20054;-74
2023/07/28 00:57:45;;;;;;;8.18;5.15;;;;;;;24.03;85.50;97890.28;5074784;28;20135;-75
2023/07/28 01:00:29;;;;;;;8.45;5.50;;;;;;;24.09;85.71;97897.06;5076941;28;20094;-74
2023/07/28 01:03:14;;;;;;;7.65;5.57;;;;;;;24.14;85.56;97893.44;5076877;28;20079;-74
2023/07/28 01:06:08;;;;;;;7.95;6.07;;;;;;;24.06;86.30;97896.88;5083743;28;20043;-73
2023/07/28 01:09:06;;;;;;;11.57;7.18;;;;;;;24.01;86.33;97910.41;5074109;28;20039;-74
2023/07/28 01:11:58;;;;;;;15.15;8.00;;;;;;;23.99;86.76;97908.06;5076641;28;20035;-74
2023/07/28 01:14:43;;;;;;;12.32;7.30;;;;;;;24.13;86.26;97893.75;5074957;28;20174;-74
2023/07/28 01:17:27;;;;;;;11.52;7.50;;;;;;;24.06;86.02;97896.88;5079805;28;20097;-74
2023/07/28 01:20:12;;;;;;;12.13;7.15;;;;;;;23.99;85.58;97891.16;5077125;28;20067;-75
2023/07/28 01:23:13;;;;;;;15.23;9.15;;;;;;;23.85;85.83;97893.97;5076083;28;20048;-74
2023/07/28 01:26:08;;;;;;;18.77;10.73;;;;;;;23.71;86.62;97900.22;5075566;28;20390;-73
2023/07/28 01:28:53;;;;;;;20.52;11.63;;;;;;;23.72;87.13;97904.47;5077558;28;20485;-73
2023/07/28 01:31:38;;;;;;;20.38;11.55;;;;;;;23.87;86.76;97905.16;5076091;28;20485;-74
2023/07/28 01:34:23;;;;;;;17.75;11.77;;;;;;;23.85;86.74;97902.78;5073621;28;20052;-74
2023/07/28 01:37:07;;;;;;;21.50;12.82;;;;;;;23.93;86.75;97903.91;5078551;28;20047;-75
2023/07/28 01:39:51;;;;;;;16.50;11.48;;;;;;;23.75;86.62;97893.13;5077695;28;20067;-75
2023/07/28 01:42:35;;;;;;;15.52;10.43;;;;;;;23.64;87.05;97891.84;5076812;28;20505;-74
2023/07/28 01:45:19;;;;;;;16.48;11.52;;;;;;;23.54;87.55;97893.69;5077714;28;20130;-74
2023/07/28 01:48:04;;;;;;;15.32;11.70;;;;;;;23.57;87.97;97896.84;5073659;28;20174;-75
2023/07/28 01:50:48;;;;;;;13.77;10.40;;;;;;;23.66;87.48;97895.78;5082592;28;20614;-74
2023/07/28 01:53:32;;;;;;;13.90;10.65;;;;;;;23.72;87.22;97898.34;5081530;28;20492;-74
2023/07/28 01:56:16;;;;;;;14.57;11.10;;;;;;;23.71;87.52;97902.91;5078274;28;20079;-75
2023/07/28 01:59:00;;;;;;;16.58;11.18;;;;;;;23.49;88.15;97899.19;5080563;28;20043;-74
2023/07/28 02:01:44;;;;;;;14.98;10.43;;;;;;;23.41;88.31;97902.63;5074585;28;20143;-74
2023/07/28 02:04:27;;;;;;;11.55;8.88;;;;;;;23.27;87.37;97909.94;5079126;28;20051;-75
2023/07/28 02:07:11;;;;;;;14.35;10.88;;;;;;;23.20;88.30;97910.34;5077270;28;20105;-75
2023/07/28 02:09:55;;;;;;;12.45;9.63;;;;;;;23.08;87.84;97905.56;5079978;28;20119;-74
2023/07/28 02:12:39;;;;;;;11.98;9.30;;;;;;;23.16;87.60;97910.16;5075260;28;20039;-74
2023/07/28 02:15:23;;;;;;;11.00;9.13;;;;;;;23.08;87.38;97914.34;5081283;28;20050;-75
2023/07/28 02:18:07;;;;;;;12.15;8.65;;;;;;;22.93;87.54;97904.81;5073485;28;20051;-74
2023/07/28 02:20:51;;;;;;;12.65;9.60;;;;;;;22.84;88.98;97895.94;5077992;28;20075;-74
2023/07/28 02:23:35;;;;;;;12.82;9.45;;;;;;;22.92;88.00;97895.22;5077614;28;20074;-74
2023/07/28 02:26:19;;;;;;;10.98;8.57;;;;;;;22.97;88.22;97894.31;5078354;28;20051;-74
2023/07/28 02:29:03;;;;;;;11.07;7.78;;;;;;;23.00;88.49;97890.25;5075594;28;20038;-74
2023/07/28 02:31:47;;;;;;;10.32;7.85;;;;;;;22.96;88.81;97885.47;5076869;28;20036;-73
2023/07/28 02:34:31;;;;;;;12.27;8.73;;;;;;;22.92;89.25;97881.84;5079988;28;20036;-74
2023/07/28 02:37:16;;;;;;;10.60;7.78;;;;;;;23.05;88.61;97882.09;5081872;28;20063;-74
2023/07/28 02:40:00;;;;;;;9.15;7.43;;;;;;;23.02;88.53;97882.69;5077041;28;20128;-74
2023/07/28 02:42:44;;;;;;;12.00;8.25;;;;;;;23.04;88.51;97880.50;5077731;28;20043;-74
2023/07/28 02:45:28;;;;;;;8.88;7.15;;;;;;;23.15;88.26;97878.34;5075410;28;20048;-74
2023/07/28 02:48:12;;;;;;;12.25;7.95;;;;;;;23.29;88.73;97879.09;5072289;28;20043;-75
2023/07/28 02:50:56;;;;;;;9.73;6.22;;;;;;;23.38;88.79;97879.13;5078147;28;20048;-74
2023/07/28 02:53:40;;;;;;;8.45;5.53;;;;;;;23.32;89.60;97875.81;5079862;28;20038;-74
2023/07/28 02:56:24;;;;;;;6.78;5.35;;;;;;;23.57;89.50;97886.94;5074632;28;20043;-75
2023/07/28 02:59:08;;;;;;;6.82;5.35;;;;;;;23.73;88.90;97879.28;5075426;28;20071;-74
2023/07/28 03:01:52;;;;;;;6.68;5.32;;;;;;;23.64;89.13;97875.78;5076800;28;20035;-74
2023/07/28 03:04:36;;;;;;;9.95;5.72;;;;;;;23.57;89.13;97880.78;5070867;28;20544;-74
2023/07/28 03:07:20;;;;;;;7.60;5.63;;;;;;;23.58;89.41;97885.03;5076629;28;20098;-74
2023/07/28 03:10:05;;;;;;;8.27;5.40;;;;;;;23.60;89.26;97880.19;5075102;28;20043;-74
2023/07/28 03:12:49;;;;;;;10.23;6.40;;;;;;;23.59;89.23;97875.94;5073382;28;20051;-74
2023/07/28 03:15:33;;;;;;;7.40;5.80;;;;;;;23.78;88.86;97879.16;5075554;28;20055;-74
2023/07/28 03:18:17;;;;;;;7.18;5.35;;;;;;;23.85;88.20;97870.63;5076437;28;20043;-74
2023/07/28 03:21:01;;;;;;;5.45;4.80;;;;;;;23.78;87.95;97871.13;5079175;28;20047;-74
2023/07/28 03:23:45;;;;;;;7.72;5.28;;;;;;;23.88;87.89;97874.59;5080979;28;20562;-74
2023/07/28 03:26:29;;;;;;;5.57;4.88;;;;;;;23.73;88.14;97873.91;5075299;28;20121;-74
2023/07/28 03:29:13;;;;;;;6.32;5.05;;;;;;;23.79;87.88;97882.59;5074835;28;20067;-74
2023/07/28 03:32:00;;;;;;;7.32;4.72;;;;;;;23.72;88.28;97890.31;5073050;28;20406;-74
2023/07/28 03:34:44;;;;;;;8.15;5.22;;;;;;;23.75;88.22;97887.78;5078094;28;20079;-74
2023/07/28 03:37:28;;;;;;;6.03;4.80;;;;;;;23.85;87.49;97885.94;5080725;28;20070;-74
2023/07/28 03:40:12;;;;;;;7.13;4.95;;;;;;;23.77;87.80;97888.25;5078123;28;20047;-74
2023/07/28 03:42:57;;;;;;;7.78;6.10;;;;;;;23.80;87.67;97893.03;5074464;28;20047;-74
2023/07/28 03:45:41;;;;;;;6.78;5.00;;;;;;;23.74;87.58;97885.44;5080435;28;20058;-74
2023/07/28 03:48:25;;;;;;;5.40;4.78;;;;;;;23.86;87.14;97887.50;5078353;28;20063;-74
2023/07/28 03:51:09;;;;;;;6.25;4.63;;;;;;;23.89;87.25;97890.38;5073942;28;20138;-74
2023/07/28 03:53:53;;;;;;;6.13;5.07;;;;;;;23.90;86.95;97878.56;5079270;28;20082;-74
2023/07/28 03:56:38;;;;;;;5.57;4.88;;;;;;;24.02;86.21;97887.88;5082527;28;20129;-74
2023/07/28 03:59:22;;;;;;;5.40;4.47;;;;;;;24.04;86.33;97883.00;5077644;28;20047;-74
2023/07/28 04:02:06;;;;;;;5.60;5.00;;;;;;;23.95;85.90;97880.28;5074273;28;20102;-74
2023/07/28 04:04:54;;;;;;;5.03;4.53;;;;;;;23.73;85.95;97881.94;5074327;28;20465;-75
2023/07/28 04:07:39;;;;;;;7.20;4.32;;;;;;;23.52;85.95;97889.75;5073005;28;20056;-75
2023/07/28 04:10:23;;;;;;;4.93;4.43;;;;;;;23.33;86.13;97893.44;5073419;28;20051;-74
2023/07/28 04:13:08;;;;;;;8.82;6.13;;;;;;;23.23;87.33;97889.13;5077712;28;20047;-75
2023/07/28 04:15:52;;;;;;;7.43;5.97;;;;;;;23.35;86.77;97898.47;5074427;28;20051;-74
2023/07/28 04:18:37;;;;;;;6.28;5.03;;;;;;;23.27;86.80;97893.88;5075868;28;20045;-74
2023/07/28 04:21:21;;;;;;;6.40;5.38;;;;;;;23.17;87.08;97895.69;5074524;28;20055;-75
2023/07/28 04:24:07;;;;;;;6.32;5.43;;;;;;;23.20;86.99;97911.16;5075811;28;20387;-74
2023/07/28 04:26:51;;;;;;;10.15;6.53;;;;;;;23.51;86.62;97905.03;5075497;28;20094;-74
2023/07/28 04:29:35;;;;;;;7.85;5.18;;;;;;;23.60;86.10;97907.75;5080000;28;20063;-74
2023/07/28 04:32:19;;;;;;;10.07;7.00;;;;;;;23.67;86.06;97905.41;5078104;28;20026;-73
2023/07/28 04:35:05;;;;;;;8.00;6.10;;;;;;;23.68;86.54;97904.31;5074614;28;20117;-74
2023/07/28 04:37:49;;;;;;;8.23;6.30;;;;;;;23.92;86.60;97896.97;5078396;28;20139;-74
2023/07/28 04:40:33;;;;;;;11.02;6.10;;;;;;;24.05;86.99;97896.09;5074334;28;20096;-74
2023/07/28 04:43:17;;;;;;;7.82;6.88;;;;;;;24.25;86.85;97899.28;5077458;28;20047;-74
2023/07/28 04:46:01;;;;;;;9.23;6.43;;;;;;;24.38;86.70;97906.41;5075759;28;20102;-75
2023/07/28 04:48:46;;;;;;;9.57;6.97;;;;;;;24.44;86.59;97896.31;5075310;28;20067;-74
2023/07/28 04:51:30;;;;;;;8.82;6.90;;;;;;;24.52;86.30;97898.22;5071923;28;20047;-74
2023/07/28 04:54:14;;;;;;;11.55;6.97;;;;;;;24.58;86.39;97895.38;5074944;28;20047;-74
2023/07/28 04:56:58;;;;;;;13.57;10.00;;;;;;;24.80;86.06;97891.78;5076856;28;20101;-74
2023/07/28 04:59:42;;;;;;;11.82;8.85;;;;;;;24.88;85.72;97899.03;5076190;28;20075;-74
2023/07/28 05:02:26;;;;;;;11.23;8.13;;;;;;;24.98;85.44;97905.19;5077974;28;20087;-75
2023/07/28 05:05:10;;;;;;;9.93;7.03;;;;;;;25.05;84.79;97906.25;5086154;28;20129;-75
2023/07/28 05:07:54;;;;;;;10.65;6.53;;;;;;;24.99;85.20;97898.69;5079605;28;20514;-75
2023/07/28 05:10:38;;;;;;;10.10;7.07;;;;;;;24.97;84.99;97912.44;5077457;28;20095;-74
2023/07/28 05:13:22;;;;;;;7.28;6.03;;;;;;;24.91;84.78;97902.97;5078577;28;20096;-74
2023/07/28 05:16:06;;;;;;;7.13;5.93;;;;;;;24.89;84.60;97902.50;5076586;28;20382;-74
2023/07/28 05:18:50;;;;;;;7.25;6.20;;;;;;;24.71;83.24;97915.09;5074902;28;20101;-74
2023/07/28 05:21:34;;;;;;;8.40;5.55;;;;;;;24.83;82.69;97906.44;5075532;28;20039;-74
2023/07/28 05:24:18;;;;;;;6.80;6.00;;;;;;;24.65;82.77;97901.84;5077124;28;20482;-74
2023/07/28 05:27:02;;;;;;;6.20;5.53;;;;;;;24.63;82.68;97906.75;5074982;28;20083;-73
2023/07/28 05:29:46;;;;;;;7.82;7.03;;;;;;;24.44;82.79;97907.03;5077117;28;20039;-74
2023/07/28 05:32:31;;;;;;;9.20;8.20;;;;;;;24.31;83.01;97911.44;5074444;28;20040;-74
2023/07/28 05:35:16;;;;;;;9.25;7.85;;;;;;;24.25;83.82;97918.06;5075449;28;20378;-74
2023/07/28 05:38:00;;;;;;;11.60;9.60;;;;;;;24.37;83.68;97917.44;5079715;28;20059;-74
2023/07/28 05:40:44;;;;;;;10.05;8.90;;;;;;;24.52;83.55;97918.88;5079754;28;20051;-74
2023/07/28 05:43:28;;;;;;;13.05;9.77;;;;;;;24.45;83.81;97919.34;5078312;28;20039;-74
2023/07/28 05:46:12;;;;;;;12.05;10.20;;;;;;;24.25;84.37;97918.06;5073950;28;20059;-76
2023/07/28 05:48:56;;;;;;;12.77;9.75;;;;;;;23.85;85.79;97918.09;5074433;28;20059;-75
2023/07/28 05:51:40;;;;;;;11.50;8.70;;;;;;;23.88;85.76;97920.94;5078861;28;20039;-74
2023/07/28 05:54:25;;;;;;;9.00;7.40;;;;;;;24.48;84.99;97920.63;5072227;28;20051;-74
2023/07/28 05:57:08;;;;;;;11.00;7.57;;;;;;;24.79;84.58;97917.81;5072782;28;20722;-74
2023/07/28 05:59:52;;;;;;;8.80;7.13;;;;;;;25.09;84.12;97903.72;5077199;28;20039;-74
2023/07/28 06:02:36;;;;;;;9.23;8.00;;;;;;;25.39;83.47;97912.66;5079585;28;20128;-75
2023/07/28 06:05:20;;;;;;;7.50;6.22;;;;;;;25.57;83.87;97909.16;5070000;28;20040;-75
2023/07/28 06:08:04;;;;;;;7.97;7.18;;;;;;;25.61;81.65;97918.16;5069734;28;20087;-75
2023/07/28 06:10:49;;;;;;;8.70;6.50;;;;;;;25.64;82.58;97918.28;5059479;28;20115;-75
2023/07/28 06:13:33;;;;;;;7.60;6.63;;;;;;;25.86;81.92;97915.66;5074695;28;20043;-75
2023/07/28 06:16:17;;;;;;;6.93;6.22;;;;;;;25.84;81.76;97915.97;5070918;28;20174;-75
2023/07/28 06:19:01;;;;;;;7.07;6.10;;;;;;;25.77;81.65;97924.56;5068407;28;20051;-75
2023/07/28 06:21:45;;;;;;;6.63;6.00;;;;;;;25.89;81.54;97917.72;5076780;28;20043;-74
2023/07/28 06:24:30;;;;;;;6.53;5.82;;;;;;;25.93;81.96;97918.63;5078272;28;20075;-74
2023/07/28 06:27:14;;;;;;;8.65;5.70;;;;;;;26.08;81.56;97918.06;5074348;28;20042;-75
2023/07/28 06:29:58;;;;;;;6.65;5.88;;;;;;;26.02;81.09;97903.25;5078998;28;20098;-74
2023/07/28 06:32:42;;;;;;;5.97;5.38;;;;;;;26.28;81.18;97904.25;5074411;28;20455;-74
2023/07/28 06:35:27;;;;;;;6.05;5.45;;;;;;;26.37;80.21;97911.13;5079737;28;20446;-75
2023/07/28 06:38:12;;;;;;;6.43;5.43;;;;;;;26.42;79.87;97907.44;5076359;28;20128;-74
2023/07/28 06:40:56;;;;;;;6.57;5.88;;;;;;;26.45;80.08;97911.38;5076556;28;20059;-75
2023/07/28 06:43:41;;;;;;;7.30;6.00;;;;;;;26.76;78.60;97910.22;5080131;28;20085;-75
2023/07/28 06:46:25;;;;;;;6.65;5.95;;;;;;;27.05;78.82;97911.22;5070171;28;20047;-75
2023/07/28 06:49:09;;;;;;;7.70;5.72;;;;;;;27.48;78.00;97918.06;5075658;28;20157;-74
2023/07/28 06:51:53;;;;;;;5.78;5.20;;;;;;;27.44;77.24;97916.38;5075204;28;20173;-75
2023/07/28 06:54:37;;;;;;;6.30;5.50;;;;;;;27.78;76.45;97920.59;5074139;28;20047;-75
2023/07/28 06:57:20;;;;;;;6.60;5.28;;;;;;;27.25;76.22;97915.00;5075611;28;20043;-74
2023/07/28 07:00:05;;;;;;;7.90;5.72;;;;;;;27.23;75.74;97907.25;5076596;28;20124;-76
2023/07/28 07:02:49;;;;;;;8.40;5.85;;;;;;;27.27;75.83;97911.97;5078824;28;20093;-75
2023/07/28 07:05:33;;;;;;;6.90;5.15;;;;;;;26.92;76.06;97913.09;5079725;28;20039;-79
2023/07/28 07:08:17;;;;;;;6.97;6.03;;;;;;;26.75;76.98;97919.41;5079337;28;20105;-78
2023/07/28 07:11:01;;;;;;;7.18;6.30;;;;;;;26.54;77.41;97914.03;5073335;28;20047;-78
2023/07/28 07:13:45;;;;;;;6.35;5.65;;;;;;;26.89;77.41;97913.75;5077389;28;20466;-78
2023/07/28 07:16:29;;;;;;;6.90;5.68;;;;;;;27.30;76.64;97916.66;5081024;28;20046;-79
2023/07/28 07:19:13;;;;;;;6.80;5.47;;;;;;;27.70;76.58;97926.09;5074363;28;20127;-78
2023/07/28 07:21:57;;;;;;;6.93;5.70;;;;;;;27.64;75.02;97925.53;5079231;28;20070;-81
2023/07/28 07:24:41;;;;;;;6.35;5.32;;;;;;;27.93;74.65;97924.53;5075667;28;20568;-83
2023/07/28 07:27:25;;;;;;;5.78;5.20;;;;;;;28.31;73.48;97925.31;5074671;28;20728;-83
2023/07/28 07:30:10;;;;;;;5.20;4.70;;;;;;;27.47;74.06;97924.56;5080471;28;20046;-85
2023/07/28 07:32:54;;;;;;;4.88;4.38;;;;;;;27.61;73.67;97920.81;5081707;28;20542;-82
2023/07/28 07:35:38;;;;;;;6.47;4.65;;;;;;;27.71;73.28;97925.78;5079502;28;20087;-82
2023/07/28 07:38:22;;;;;;;4.82;4.30;;;;;;;27.42;74.75;97924.78;5078815;28;20077;-82
2023/07/28 07:41:08;;;;;;;6.93;4.35;;;;;;;28.02;73.17;97929.78;5080003;28;20089;-80
2023/07/28 07:43:54;;;;;;;5.10;4.60;;;;;;;27.73;73.18;97939.69;5081700;28;20518;-80
2023/07/28 07:46:38;;;;;;;4.90;4.40;;;;;;;27.43;73.91;97942.53;5080703;28;20131;-79
2023/07/28 07:49:22;;;;;;;5.30;4.70;;;;;;;27.59;73.71;97941.91;5081192;28;20375;-79
2023/07/28 07:52:08;;;;;;;7.80;5.30;;;;;;;27.36;73.84;97942.31;5078742;28;20039;-80
2023/07/28 07:54:52;;;;;;;6.05;5.45;;;;;;;27.48;74.45;97942.31;5079048;28;20051;-79
2023/07/28 07:57:36;;;;;;;5.88;5.15;;;;;;;27.77;73.88;97932.50;5079586;28;20039;-80
2023/07/28 08:00:22;;;;;;;5.68;4.82;;;;;;;27.75;73.63;97937.44;5084992;28;20059;-81
2023/07/28 08:03:06;;;;;;;7.13;4.88;;;;;;;27.89;73.64;97944.41;5079456;28;20078;-80
2023/07/28 08:05:51;;;;;;;6.00;5.40;;;;;;;27.55;73.43;97941.03;5080021;28;20044;-80
2023/07/28 08:08:35;;;;;;;6.05;4.90;;;;;;;27.56;74.02;97939.91;5084966;28;20044;-80
2023/07/28 08:11:19;;;;;;;5.03;4.53;;;;;;;27.18;74.52;97939.78;5080402;28;20083;-80
2023/07/28 08:14:03;;;;;;;5.10;4.60;;;;;;;27.13;74.45;97942.69;5083769;28;20040;-80
2023/07/28 08:16:47;;;;;;;5.15;4.10;;;;;;;27.43;73.81;97945.22;5085865;28;20054;-80
2023/07/28 08:19:31;;;;;;;4.10;3.70;;;;;;;27.60;72.99;97940.78;5081468;28;20048;-80
2023/07/28 08:22:15;;;;;;;4.18;3.78;;;;;;;27.77;72.75;97939.78;5073722;28;20047;-80
2023/07/28 08:24:59;;;;;;;4.90;4.40;;;;;;;27.50;73.08;97942.00;5085427;28;20058;-80
2023/07/28 08:27:43;;;;;;;4.53;4.07;;;;;;;27.46;73.13;97936.47;5086151;28;20451;-79
2023/07/28 08:30:27;;;;;;;4.35;3.78;;;;;;;27.43;73.08;97942.53;5081451;28;21374;-79
2023/07/28 08:33:11;;;;;;;3.83;3.42;;;;;;;28.38;72.31;97942.84;5082282;28;20427;-80
2023/07/28 08:35:55;;;;;;;4.05;3.65;;;;;;;28.89;70.91;97943.16;5087156;28;20516;-80
2023/07/28 08:38:39;;;;;;;3.42;3.13;;;;;;;29.24;69.01;97944.47;5082934;28;20075;-80
2023/07/28 08:41:24;;;;;;;3.47;3.13;;;;;;;28.75;68.62;97953.53;5082308;28;20082;-80
2023/07/28 08:44:08;;;;;;;3.80;3.45;;;;;;;29.10;68.23;97944.09;5091190;28;20139;-82
2023/07/28 08:46:52;;;;;;;4.03;3.67;;;;;;;29.27;67.98;97951.88;5087309;28;20147;-81
2023/07/28 08:49:36;;;;;;;4.05;3.47;;;;;;;29.46;67.94;97948.50;5079301;28;20093;-82
2023/07/28 08:52:20;;;;;;;5.15;3.33;;;;;;;29.83;67.13;97960.22;5082690;28;20093;-85
2023/07/28 08:55:06;;;;;;;3.63;3.33;;;;;;;29.56;66.90;97962.66;5073803;28;20090;-86
2023/07/28 08:57:50;;;;;;;3.85;3.40;;;;;;;29.17;67.11;97960.47;5077547;28;20035;-83
2023/07/28 09:00:37;;;;;;;4.10;3.70;;;;;;;29.14;67.75;97970.06;5080753;28;20432;-86
2023/07/28 09:03:22;;;;;;;4.22;3.38;;;;;;;28.67;68.04;97962.53;5076374;28;20040;-84
2023/07/28 09:06:10;;;;;;;4.10;3.47;;;;;;;28.69;68.59;97962.97;5079358;28;20434;-82
2023/07/28 09:08:56;;;;;;;6.97;3.38;;;;;;;28.73;69.00;97961.19;5075564;28;20048;-84
2023/07/28 09:11:48;;;;;;;3.55;3.25;;;;;;;28.86;69.28;97960.03;5075762;28;20107;-84
2023/07/28 09:14:36;;;;;;;4.90;3.17;;;;;;;28.79;68.65;97967.91;5077686;28;20540;-80
2023/07/28 09:17:20;;;;;;;4.07;2.95;;;;;;;29.02;67.89;97972.81;5080078;28;20635;-81
2023/07/28 09:20:05;;;;;;;3.28;2.97;;;;;;;28.99;67.85;97966.19;5068417;28;20055;-74
2023/07/28 09:22:50;;;;;;;4.45;2.72;;;;;;;28.21;67.53;97974.31;5068148;28;20044;-78
2023/07/28 09:25:37;;;;;;;3.00;2.70;;;;;;;27.88;68.41;97969.78;5069500;28;20123;-75
2023/07/28 09:28:22;;;;;;;4.28;2.50;;;;;;;28.42;68.72;97973.41;5072330;28;20047;-75
2023/07/28 09:31:08;;;;;;;4.95;2.45;;;;;;;28.32;68.78;97970.06;5070850;28;20063;-76
2023/07/28 09:33:52;;;;;;;2.55;2.33;;;;;;;28.93;67.33;97965.66;5077868;28;20043;-77
2023/07/28 09:36:38;;;;;;;2.15;1.95;;;;;;;28.93;66.70;97960.25;5078685;28;20114;-76
2023/07/28 09:39:22;;;;;;;2.10;1.83;;;;;;;28.68;66.67;97969.50;5076748;28;20102;-76
2023/07/28 09:42:09;;;;;;;2.30;2.10;;;;;;;28.50;67.23;97967.88;5071895;28;20048;-76
2023/07/28 09:44:53;;;;;;;1.90;1.80;;;;;;;28.72;67.31;97965.78;5078269;28;20039;-76
2023/07/28 09:47:37;;;;;;;2.67;2.40;;;;;;;28.67;66.42;97973.34;5078163;28;20055;-76
2023/07/28 09:50:26;;;;;;;3.95;2.20;;;;;;;28.42;67.83;97974.19;5074014;28;20444;-76
2023/07/28 09:53:13;;;;;;;2.47;2.13;;;;;;;28.61;68.05;97980.91;5077732;28;20039;-85
2023/07/28 09:55:58;;;;;;;4.03;2.60;;;;;;;28.30;67.44;97972.31;5077827;28;20059;-81
2023/07/28 09:58:52;;;;;;;2.55;2.15;;;;;;;29.03;66.74;97968.97;5084693;28;20040;-83
2023/07/28 10:01:37;;;;;;;2.55;2.30;;;;;;;29.46;65.46;97975.53;5081392;28;20132;-83
2023/07/28 10:04:21;;;;;;;3.80;2.38;;;;;;;30.14;63.76;97980.28;5080652;28;20109;-83
2023/07/28 10:07:07;;;;;;;3.63;2.35;;;;;;;29.70;63.88;97978.44;5081635;28;20067;-77
2023/07/28 10:09:51;;;;;;;3.10;2.67;;;;;;;29.30;64.57;97978.19;5079934;28;20051;-77
2023/07/28 10:13:02;;;;;;;2.35;2.15;;;;;;;29.87;63.62;97977.31;5074854;28;20127;-77
2023/07/28 10:15:50;;;;;;;2.42;2.22;;;;;;;30.09;62.56;97978.63;5072864;28;20047;-78
2023/07/28 10:18:35;;;;;;;2.63;2.42;;;;;;;30.28;62.40;97980.63;5071218;28;20044;-77
2023/07/28 10:21:19;;;;;;;3.63;2.80;;;;;;;30.38;62.12;97981.22;5080555;28;20051;-86
2023/07/28 10:24:04;;;;;;;2.30;2.10;;;;;;;30.83;61.84;97965.53;5081896;28;20540;-86
2023/07/28 10:26:48;;;;;;;2.40;2.20;;;;;;;31.06;61.00;97969.09;5081661;28;20090;-86
2023/07/28 10:29:37;;;;;;;2.50;2.30;;;;;;;30.60;61.11;97974.34;5084265;28;20035;-84
2023/07/28 10:32:32;;;;;;;2.60;2.38;;;;;;;30.34;61.52;97976.50;5080387;28;20028;-87
2023/07/28 10:35:21;;;;;;;2.35;2.15;;;;;;;30.17;62.49;97963.34;5082570;28;20119;-84
2023/07/28 10:38:33;;;;;;;4.10;2.53;;;;;;;29.09;64.19;97962.22;5083995;28;20496;-83
2023/07/28 10:41:18;;;;;;;5.28;2.30;;;;;;;29.15;63.76;97970.84;5079259;28;20504;-85
2023/07/28 10:44:03;;;;;;;3.40;2.90;;;;;;;28.93;64.31;97965.66;5080354;28;20036;-85
2023/07/28 10:46:47;;;;;;;2.63;2.38;;;;;;;28.57;63.68;97972.69;5082373;28;20126;-83
2023/07/28 10:49:33;;;;;;;3.22;2.30;;;;;;;28.32;62.98;97972.75;5082273;28;20537;-83
2023/07/28 10:52:18;;;;;;;2.30;2.10;;;;;;;28.40;63.60;97970.25;5084419;28;20039;-82
2023/07/28 10:55:02;;;;;;;2.42;2.22;;;;;;;28.61;62.77;97964.72;5079089;28;20047;-84
2023/07/28 10:57:47;;;;;;;4.22;2.20;;;;;;;28.86;61.73;97968.13;5074515;28;20043;-85
2023/07/28 11:00:31;;;;;;;3.65;2.45;;;;;;;29.44;61.06;97958.13;5077370;28;20031;-85
2023/07/28 11:03:15;;;;;;;3.38;2.42;;;;;;;29.96;59.25;97964.41;5086864;28;20409;-85
2023/07/28 11:06:00;;;;;;;3.47;2.38;;;;;;;29.77;59.11;97957.78;5076897;28;20123;-86
2023/07/28 11:08:44;;;;;;;3.10;2.60;;;;;;;29.93;58.68;97954.28;5077508;28;20505;-86
2023/07/28 11:11:28;;;;;;;2.65;2.45;;;;;;;29.05;60.38;97945.91;5080814;28;20102;-85
2023/07/28 11:14:14;;;;;;;3.67;2.63;;;;;;;29.22;59.69;97955.59;5078661;28;20058;-83
2023/07/28 11:16:59;;;;;;;3.35;2.63;;;;;;;30.82;58.26;97953.91;5082124;28;20039;-84
2023/07/28 11:19:43;;;;;;;3.72;2.53;;;;;;;31.65;57.08;97949.22;5075350;28;20075;-84
2023/07/28 11:22:27;;;;;;;3.03;2.78;;;;;;;31.75;56.00;97948.59;5075856;28;20052;-87
2023/07/28 11:25:13;;;;;;;4.35;3.20;;;;;;;32.07;55.41;97944.06;5077148;28;20137;-85
2023/07/28 11:27:57;;;;;;;3.60;3.30;;;;;;;31.43;55.47;97948.84;5079551;28;20051;-86
2023/07/28 11:30:43;;;;;;;3.65;3.10;;;;;;;31.70;54.55;97946.22;5081293;28;20462;-87
2023/07/28 11:33:27;;;;;;;3.90;3.47;;;;;;;32.03;55.94;97938.59;5081881;28;20076;-84
2023/07/28 11:36:11;;;;;;;4.75;3.70;;;;;;;32.05;54.26;97945.22;5075116;28;20035;-87
2023/07/28 11:38:58;;;;;;;3.60;3.30;;;;;;;32.99;53.94;97951.09;5083159;28;20122;-87
2023/07/28 11:41:43;;;;;;;3.83;3.50;;;;;;;32.96;54.49;97945.63;5080413;28;20399;-86
2023/07/28 11:44:28;;;;;;;3.40;3.10;;;;;;;32.82;51.86;97944.28;5079577;28;20047;-87
2023/07/28 11:47:18;;;;;;;4.03;3.63;;;;;;;32.97;52.27;97942.53;5082980;28;20409;-87
2023/07/28 11:50:03;;;;;;;4.65;3.38;;;;;;;33.01;52.66;97937.13;5079670;28;20039;-86
2023/07/28 11:52:47;;;;;;;4.15;3.00;;;;;;;32.17;50.83;97935.28;5073140;28;20043;-85
2023/07/28 11:55:31;;;;;;;3.53;3.22;;;;;;;31.89;52.19;97936.44;5075148;28;20397;-86
2023/07/28 11:58:15;;;;;;;3.47;3.17;;;;;;;32.40;52.41;97948.03;5080125;28;20128;-86
2023/07/28 12:01:08;;;;;;;4.68;3.67;;;;;;;32.40;52.02;97951.53;5076308;28;20180;-87
2023/07/28 12:03:52;;;;;;;3.60;3.30;;;;;;;31.44;50.80;97942.28;5077609;28;20089;-84
2023/07/28 12:07:04;;;;;;;5.10;3.33;;;;;;;31.95;52.04;97940.41;5077695;28;20106;-85
2023/07/28 12:09:48;;;;;;;4.10;3.67;;;;;;;31.20;51.11;97946.13;5085312;28;20051;-85
2023/07/28 12:12:43;;;;;;;4.28;3.83;;;;;;;31.23;50.67;97944.63;5078538;28;20406;-85
2023/07/28 12:15:29;;;;;;;5.57;3.67;;;;;;;31.41;50.25;97947.66;5087860;28;20071;-84
2023/07/28 12:18:15;;;;;;;3.50;3.20;;;;;;;31.99;50.37;97946.66;5079806;28;20051;-86
2023/07/28 12:21:00;;;;;;;4.65;3.47;;;;;;;32.02;50.22;97945.16;5083360;28;20451;-86
2023/07/28 12:23:44;;;;;;;3.35;3.10;;;;;;;32.48;49.53;97945.03;5085115;28;20062;-85
2023/07/28 12:26:28;;;;;;;3.88;3.50;;;;;;;32.62;49.40;97941.75;5088071;28;20044;-86
2023/07/28 12:29:12;;;;;;;3.90;3.58;;;;;;;32.75;48.18;97945.00;5082376;28;20089;-86
2023/07/28 12:31:56;;;;;;;4.50;3.55;;;;;;;32.69;48.40;97942.97;5077385;28;20063;-84
2023/07/28 12:34:40;;;;;;;3.63;3.33;;;;;;;33.12;48.91;97948.91;5084686;28;20078;-84
2023/07/28 12:37:24;;;;;;;4.45;3.60;;;;;;;32.89;47.94;97936.25;5084561;28;20039;-80
2023/07/28 12:40:10;;;;;;;4.53;3.17;;;;;;;33.44;48.28;97937.59;5092442;28;20546;-82
2023/07/28 12:42:54;;;;;;;5.63;3.28;;;;;;;34.44;46.49;97937.88;5078269;28;20128;-82
2023/07/28 12:45:38;;;;;;;3.95;3.55;;;;;;;33.43;45.77;97938.75;5084029;28;20043;-82
2023/07/28 12:48:22;;;;;;;3.70;3.20;;;;;;;34.46;46.67;97944.47;5082002;28;20125;-82
2023/07/28 12:51:06;;;;;;;4.40;3.63;;;;;;;34.63;46.19;97941.47;5084729;28;20043;-82
2023/07/28 12:53:50;;;;;;;4.30;3.90;;;;;;;33.63;45.60;97937.72;5081853;28;20089;-82